Time;durP1;ratioP1;P1;durP2;ratioP2;P2;SDS_P1;SDS_P2;PMS_P1;PMS_P2;Temp;Humidity;BMP_temperature;BMP_pressure;BME280_temperature;BME280_humidity;BME280_pressure;Samples;Min_cycle;Max_cycle;Signal;HPM_P1;HPM_P2
2021/07/14 00:02:13;;;;;;;58.55;33.58;;;;;;;;;;5015470;28;20139;-71
2021/07/14 00:04:39;;;;;;;59.42;35.17;;;;;;;;;;5045273;28;20037;-71
2021/07/14 00:07:05;;;;;;;60.15;35.47;;;;;;;;;;5031706;28;20042;-71
2021/07/14 00:09:32;;;;;;;65.55;36.35;;;;;;;;;;5037661;28;20045;-71
2021/07/14 00:12:01;;;;;;;68.53;38.20;;;;;;;;;;5037560;28;20049;-71
2021/07/14 00:22:39;;;;;;;78.10;38.97;;;;;;;;;;5032382;28;20099;-72
2021/07/14 00:25:07;;;;;;;80.15;40.85;;;;;;;;;;5041504;28;20404;-72
2021/07/14 00:27:38;;;;;;;75.20;38.28;;;;;;;;;;5028836;28;20033;-72
2021/07/14 00:30:09;;;;;;;82.82;38.92;;;;;;;;;;5037421;28;20068;-72
2021/07/14 00:32:35;;;;;;;86.10;40.25;;;;;;;;;;5028684;28;20035;-72
2021/07/14 00:35:01;;;;;;;78.47;38.47;;;;;;;;;;5044034;28;20453;-72
2021/07/14 00:37:27;;;;;;;97.00;41.17;;;;;;;;;;5028434;28;20413;-72
2021/07/14 00:39:56;;;;;;;85.40;39.33;;;;;;;;;;5034436;28;20405;-72
2021/07/14 00:42:24;;;;;;;99.35;42.42;;;;;;;;;;5040667;28;20124;-72
2021/07/14 00:44:50;;;;;;;91.38;40.83;;;;;;;;;;5035570;28;20050;-72
2021/07/14 00:47:22;;;;;;;87.10;40.75;;;;;;;;;;5035740;28;20477;-72
2021/07/14 00:49:48;;;;;;;72.68;37.20;;;;;;;;;;5036992;28;20041;-72
2021/07/14 00:52:14;;;;;;;96.43;40.42;;;;;;;;;;5036990;28;20052;-72
2021/07/14 00:54:43;;;;;;;84.50;39.58;;;;;;;;;;5029844;28;20060;-72
2021/07/14 00:57:09;;;;;;;82.47;40.10;;;;;;;;;;5022094;28;20042;-72
2021/07/14 00:59:35;;;;;;;78.78;38.92;;;;;;;;;;5038849;28;20457;-72
2021/07/14 01:02:02;;;;;;;77.00;39.47;;;;;;;;;;5036990;28;20398;-71
2021/07/14 01:04:35;;;;;;;83.70;40.22;;;;;;;;;;5031043;28;20281;-71
2021/07/14 01:07:09;;;;;;;95.93;40.50;;;;;;;;;;5034694;28;20112;-71
2021/07/14 01:09:35;;;;;;;;;;;;;;;;;;5032332;28;20068;-71
2021/07/14 01:12:07;;;;;;;76.85;38.50;;;;;;;;;;5036771;28;19917;-71
2021/07/14 01:14:46;;;;;;;75.72;39.95;;;;;;;;;;5030362;28;20418;-71
2021/07/14 01:17:14;;;;;;;82.47;38.92;;;;;;;;;;5038488;28;20083;-71
2021/07/14 01:19:57;;;;;;;78.65;39.90;;;;;;;;;;5039213;28;20112;-71
2021/07/14 01:22:31;;;;;;;78.43;40.00;;;;;;;;;;5035000;28;20187;-71
2021/07/14 01:25:05;;;;;;;74.83;38.93;;;;;;;;;;5031471;28;20303;-71
2021/07/14 01:27:34;;;;;;;85.53;40.05;;;;;;;;;;5032831;28;20088;-71
2021/07/14 01:30:01;;;;;;;67.38;37.15;;;;;;;;;;5026366;28;20481;-71
2021/07/14 01:32:29;;;;;;;68.68;36.67;;;;;;;;;;5043160;28;20047;-71
2021/07/14 01:35:20;;;;;;;59.53;34.42;;;;;;;;;;5028644;28;20040;-71
2021/07/14 01:37:48;;;;;;;68.20;37.22;;;;;;;;;;5033043;28;20533;-71
2021/07/14 01:40:15;;;;;;;55.60;34.65;;;;;;;;;;5028946;28;20049;-72
2021/07/14 01:42:44;;;;;;;61.83;34.25;;;;;;;;;;5035133;28;20068;-72
2021/07/14 01:45:12;;;;;;;63.78;37.08;;;;;;;;;;5013940;28;20048;-71
2021/07/14 01:47:39;;;;;;;67.90;36.47;;;;;;;;;;5032234;28;20383;-71
2021/07/14 01:50:06;;;;;;;60.20;36.13;;;;;;;;;;5036630;28;20494;-71
2021/07/14 01:52:33;;;;;;;66.03;37.10;;;;;;;;;;5034594;28;20041;-71
2021/07/14 01:55:02;;;;;;;68.22;36.00;;;;;;;;;;5016593;28;20056;-71
2021/07/14 01:57:30;;;;;;;68.93;38.30;;;;;;;;;;5035324;28;20032;-71
2021/07/14 01:59:57;;;;;;;74.22;39.28;;;;;;;;;;5032156;28;20401;-71
2021/07/14 02:02:26;;;;;;;74.10;40.30;;;;;;;;;;5029954;28;20101;-71
2021/07/14 02:04:53;;;;;;;77.45;39.38;;;;;;;;;;5035228;28;20469;-71
2021/07/14 02:07:26;;;;;;;68.38;38.65;;;;;;;;;;5028702;28;20073;-71
2021/07/14 02:09:53;;;;;;;71.53;39.63;;;;;;;;;;5016038;28;20516;-71
2021/07/14 02:12:21;;;;;;;71.13;38.92;;;;;;;;;;5028383;28;20312;-71
2021/07/14 02:14:53;;;;;;;65.25;40.08;;;;;;;;;;5035089;28;20041;-71
2021/07/14 02:17:21;;;;;;;67.20;39.75;;;;;;;;;;5030286;28;20025;-71
2021/07/14 02:19:52;;;;;;;73.72;39.63;;;;;;;;;;5040476;28;20046;-71
2021/07/14 02:22:18;;;;;;;87.55;42.58;;;;;;;;;;5026927;28;20041;-71
2021/07/14 02:24:45;;;;;;;78.22;40.63;;;;;;;;;;5034585;28;20040;-71
2021/07/14 02:27:11;;;;;;;82.85;42.75;;;;;;;;;;5015578;28;20038;-71
2021/07/14 02:29:39;;;;;;;81.03;43.10;;;;;;;;;;5039807;28;20042;-71
2021/07/14 02:32:06;;;;;;;96.78;45.55;;;;;;;;;;5016197;28;20072;-71
2021/07/14 02:34:34;;;;;;;82.35;43.92;;;;;;;;;;5046309;28;20033;-71
2021/07/14 02:37:01;;;;;;;91.78;46.40;;;;;;;;;;5032982;28;20103;-71
2021/07/14 02:39:28;;;;;;;88.55;45.22;;;;;;;;;;5026741;28;20388;-71
2021/07/14 02:42:03;;;;;;;93.47;46.03;;;;;;;;;;5038155;28;20068;-71
2021/07/14 02:44:34;;;;;;;91.55;45.60;;;;;;;;;;5037440;28;20067;-71
2021/07/14 02:47:01;;;;;;;101.45;50.78;;;;;;;;;;5030659;28;20037;-71
2021/07/14 02:49:27;;;;;;;90.60;46.95;;;;;;;;;;5039036;28;20045;-71
2021/07/14 02:51:54;;;;;;;94.65;47.42;;;;;;;;;;5036496;28;20116;-71
2021/07/14 02:54:22;;;;;;;88.80;47.30;;;;;;;;;;5033493;28;20099;-71
2021/07/14 02:56:51;;;;;;;92.30;47.10;;;;;;;;;;5041144;28;20037;-71
2021/07/14 02:59:20;;;;;;;92.38;47.35;;;;;;;;;;5033519;28;20117;-71
2021/07/14 03:01:49;;;;;;;79.15;43.33;;;;;;;;;;5035101;28;20051;-71
2021/07/14 03:04:16;;;;;;;79.53;44.67;;;;;;;;;;5030730;28;20095;-71
2021/07/14 03:06:42;;;;;;;69.45;41.22;;;;;;;;;;5037582;28;20030;-71
2021/07/14 03:09:11;;;;;;;72.22;40.35;;;;;;;;;;5034547;28;20080;-71
2021/07/14 03:11:41;;;;;;;68.32;39.28;;;;;;;;;;5035609;28;20037;-71
2021/07/14 03:14:09;;;;;;;67.60;39.42;;;;;;;;;;5040923;28;20041;-71
2021/07/14 03:16:37;;;;;;;76.38;41.20;;;;;;;;;;5040215;28;20482;-71
2021/07/14 03:19:03;;;;;;;68.20;40.63;;;;;;;;;;5033578;28;20041;-71
2021/07/14 03:21:33;;;;;;;67.25;40.58;;;;;;;;;;5043491;28;20077;-71
2021/07/14 03:24:00;;;;;;;63.60;40.10;;;;;;;;;;5017743;28;20038;-71
2021/07/14 03:26:27;;;;;;;67.53;39.65;;;;;;;;;;5037080;28;20500;-71
2021/07/14 03:28:53;;;;;;;64.25;39.97;;;;;;;;;;5028416;28;20084;-71
2021/07/14 03:31:20;;;;;;;62.58;37.10;;;;;;;;;;5040940;28;20068;-71
2021/07/14 03:33:46;;;;;;;66.90;38.95;;;;;;;;;;5018941;28;20033;-72
2021/07/14 03:36:13;;;;;;;71.70;40.45;;;;;;;;;;5036224;28;20147;-71
2021/07/14 03:38:40;;;;;;;65.03;39.17;;;;;;;;;;5039247;28;20071;-71
2021/07/14 03:41:07;;;;;;;69.63;40.58;;;;;;;;;;5045821;28;20036;-71
2021/07/14 03:43:35;;;;;;;68.30;41.15;;;;;;;;;;5037991;28;20036;-71
2021/07/14 03:46:02;;;;;;;66.03;40.25;;;;;;;;;;5020177;28;20080;-71
2021/07/14 03:48:30;;;;;;;68.45;38.10;;;;;;;;;;5036650;28;20033;-71
2021/07/14 03:50:57;;;;;;;77.15;42.95;;;;;;;;;;5028202;28;20095;-71
2021/07/14 03:53:23;;;;;;;65.13;40.75;;;;;;;;;;5032528;28;20440;-71
2021/07/14 03:55:50;;;;;;;66.35;40.25;;;;;;;;;;5028976;28;20477;-71
2021/07/14 03:58:17;;;;;;;68.88;42.30;;;;;;;;;;5041593;28;20053;-71
2021/07/14 04:00:45;;;;;;;70.93;43.25;;;;;;;;;;5034497;28;20457;-71
2021/07/14 04:03:11;;;;;;;71.60;44.60;;;;;;;;;;5035475;28;20084;-71
2021/07/14 04:05:42;;;;;;;77.85;46.95;;;;;;;;;;5033000;28;20179;-71
2021/07/14 04:08:09;;;;;;;74.75;45.90;;;;;;;;;;5035133;28;20575;-71
2021/07/14 04:10:35;;;;;;;76.93;46.03;;;;;;;;;;5029896;28;20099;-72
2021/07/14 04:13:02;;;;;;;77.55;47.78;;;;;;;;;;5036036;28;20033;-71
2021/07/14 04:15:28;;;;;;;72.88;45.38;;;;;;;;;;5033525;28;20060;-71
2021/07/14 04:17:54;;;;;;;81.88;48.63;;;;;;;;;;5038686;28;20049;-72
2021/07/14 04:20:20;;;;;;;71.55;46.25;;;;;;;;;;5036406;28;20417;-72
2021/07/14 04:22:50;;;;;;;77.75;46.72;;;;;;;;;;5031736;28;20038;-72
2021/07/14 04:25:16;;;;;;;74.22;46.53;;;;;;;;;;5036166;28;20034;-71
2021/07/14 04:27:42;;;;;;;63.63;42.17;;;;;;;;;;5026058;28;20087;-71
2021/07/14 04:30:09;;;;;;;51.38;34.40;;;;;;;;;;5017974;28;20044;-71
2021/07/14 04:32:35;;;;;;;54.70;37.10;;;;;;;;;;5033442;28;20041;-71
2021/07/14 04:35:01;;;;;;;59.90;38.75;;;;;;;;;;5025085;28;20036;-71
2021/07/14 04:37:28;;;;;;;62.10;40.42;;;;;;;;;;5035447;28;20037;-71
2021/07/14 04:39:55;;;;;;;59.33;42.03;;;;;;;;;;5034422;28;20049;-71
2021/07/14 04:42:21;;;;;;;65.80;41.45;;;;;;;;;;5031397;28;20040;-71
2021/07/14 04:44:53;;;;;;;59.53;39.25;;;;;;;;;;5032863;28;20061;-71
2021/07/14 04:47:20;;;;;;;59.20;40.45;;;;;;;;;;5016807;28;20041;-71
2021/07/14 04:49:46;;;;;;;63.05;40.08;;;;;;;;;;5016281;28;20099;-71
2021/07/14 04:52:12;;;;;;;64.03;40.85;;;;;;;;;;5029779;28;20159;-71
2021/07/14 04:54:39;;;;;;;66.97;41.80;;;;;;;;;;5033581;28;20035;-71
2021/07/14 04:57:06;;;;;;;66.05;42.72;;;;;;;;;;5010795;28;20041;-72
2021/07/14 04:59:35;;;;;;;67.57;40.83;;;;;;;;;;5042123;28;20037;-72
2021/07/14 05:02:05;;;;;;;61.42;41.17;;;;;;;;;;5040486;28;20072;-72
2021/07/14 05:04:31;;;;;;;60.40;40.33;;;;;;;;;;5029457;28;20080;-70
2021/07/14 05:06:59;;;;;;;68.00;41.88;;;;;;;;;;5035375;28;20064;-71
2021/07/14 05:09:25;;;;;;;61.88;40.70;;;;;;;;;;5035672;28;20089;-71
2021/07/14 05:11:51;;;;;;;65.07;39.95;;;;;;;;;;5036162;28;20477;-71
2021/07/14 05:14:17;;;;;;;66.90;41.15;;;;;;;;;;5029376;28;20112;-71
2021/07/14 05:16:43;;;;;;;69.47;41.33;;;;;;;;;;5038380;28;20041;-71
2021/07/14 05:19:12;;;;;;;72.07;40.78;;;;;;;;;;5032365;28;20064;-72
2021/07/14 05:21:38;;;;;;;74.22;43.72;;;;;;;;;;5019147;28;20032;-72
2021/07/14 05:24:05;;;;;;;73.25;42.70;;;;;;;;;;5033640;28;20063;-72
2021/07/14 05:26:31;;;;;;;67.55;42.75;;;;;;;;;;5032327;28;21775;-72
2021/07/14 05:28:57;;;;;;;67.00;41.42;;;;;;;;;;5032189;28;20037;-72
2021/07/14 05:31:23;;;;;;;70.38;40.00;;;;;;;;;;5031446;28;20029;-72
2021/07/14 05:33:49;;;;;;;65.38;41.53;;;;;;;;;;5027858;28;20033;-72
2021/07/14 05:36:16;;;;;;;59.67;40.95;;;;;;;;;;5035089;28;20029;-71
2021/07/14 05:38:42;;;;;;;68.65;40.55;;;;;;;;;;5027691;28;20057;-71
2021/07/14 05:41:09;;;;;;;71.43;41.03;;;;;;;;;;5036363;28;20037;-71
2021/07/14 05:43:36;;;;;;;62.50;38.55;;;;;;;;;;5018082;28;20090;-71
2021/07/14 05:46:02;;;;;;;66.68;41.42;;;;;;;;;;5033823;28;20045;-71
2021/07/14 05:48:28;;;;;;;65.78;39.63;;;;;;;;;;5035309;28;20057;-71
2021/07/14 05:50:55;;;;;;;70.15;41.25;;;;;;;;;;5027835;28;20053;-71
2021/07/14 05:53:22;;;;;;;64.25;41.65;;;;;;;;;;5033665;28;20112;-71
2021/07/14 05:55:48;;;;;;;65.50;40.60;;;;;;;;;;5031489;28;20091;-71
2021/07/14 05:58:15;;;;;;;64.68;41.03;;;;;;;;;;5035200;28;20041;-71
2021/07/14 06:00:41;;;;;;;69.82;42.55;;;;;;;;;;5031535;28;20075;-71
2021/07/14 06:03:07;;;;;;;61.65;41.08;;;;;;;;;;5043369;28;20124;-71
2021/07/14 06:05:34;;;;;;;62.97;40.10;;;;;;;;;;5017658;28;20041;-70
2021/07/14 06:08:01;;;;;;;62.08;41.20;;;;;;;;;;5040414;28;20489;-71
2021/07/14 06:10:27;;;;;;;64.57;39.17;;;;;;;;;;5036731;28;20049;-71
2021/07/14 06:12:56;;;;;;;55.75;38.03;;;;;;;;;;5040848;28;20419;-71
2021/07/14 06:15:25;;;;;;;53.80;37.50;;;;;;;;;;5041575;28;20068;-71
2021/07/14 06:17:51;;;;;;;51.28;37.25;;;;;;;;;;5049120;28;20068;-71
2021/07/14 06:20:18;;;;;;;49.25;36.55;;;;;;;;;;5016811;28;20053;-71
2021/07/14 06:22:44;;;;;;;50.40;35.08;;;;;;;;;;5020432;28;20065;-71
2021/07/14 06:25:12;;;;;;;44.53;33.90;;;;;;;;;;5042443;28;20128;-71
2021/07/14 06:27:38;;;;;;;41.00;31.67;;;;;;;;;;5035270;28;20034;-71
2021/07/14 06:30:08;;;;;;;43.83;32.25;;;;;;;;;;5044675;28;20409;-71
2021/07/14 06:32:35;;;;;;;41.53;31.42;;;;;;;;;;5035541;28;20045;-71
2021/07/14 06:35:02;;;;;;;34.42;26.85;;;;;;;;;;5042649;28;20037;-71
2021/07/14 06:37:28;;;;;;;34.50;28.08;;;;;;;;;;5038850;28;20072;-71
2021/07/14 06:39:55;;;;;;;34.47;27.65;;;;;;;;;;5048455;28;20040;-71
2021/07/14 06:42:21;;;;;;;32.28;27.83;;;;;;;;;;5039008;28;20052;-72
2021/07/14 06:44:47;;;;;;;29.83;26.45;;;;;;;;;;5042344;28;20037;-71
2021/07/14 06:47:13;;;;;;;28.33;24.38;;;;;;;;;;5037568;28;20043;-71
2021/07/14 06:49:40;;;;;;;27.50;24.23;;;;;;;;;;5041331;28;20041;-71
2021/07/14 06:52:06;;;;;;;26.58;23.48;;;;;;;;;;5025111;28;20053;-71
2021/07/14 06:54:32;;;;;;;27.70;22.42;;;;;;;;;;5042808;28;20041;-71
2021/07/14 06:56:58;;;;;;;24.85;20.73;;;;;;;;;;5036281;28;20113;-71
2021/07/14 06:59:25;;;;;;;24.70;21.80;;;;;;;;;;5040844;28;20098;-71
2021/07/14 07:01:51;;;;;;;22.75;20.23;;;;;;;;;;5034530;28;20133;-71
2021/07/14 07:04:17;;;;;;;22.05;19.77;;;;;;;;;;5044134;28;20078;-71
2021/07/14 07:06:43;;;;;;;22.92;20.38;;;;;;;;;;5042408;28;20049;-72
2021/07/14 07:09:09;;;;;;;39.42;20.05;;;;;;;;;;5039817;28;20088;-71
2021/07/14 07:11:37;;;;;;;21.92;18.48;;;;;;;;;;5042538;28;20481;-72
2021/07/14 07:14:03;;;;;;;19.50;16.75;;;;;;;;;;5033394;28;20037;-72
2021/07/14 07:16:29;;;;;;;20.92;18.60;;;;;;;;;;5037130;28;20037;-72
2021/07/14 07:18:55;;;;;;;19.52;17.48;;;;;;;;;;5025425;28;20504;-72
2021/07/14 07:21:22;;;;;;;20.65;17.50;;;;;;;;;;5037565;28;20073;-72
2021/07/14 07:23:48;;;;;;;19.42;17.02;;;;;;;;;;5032237;28;20033;-72
2021/07/14 07:26:15;;;;;;;20.27;17.15;;;;;;;;;;5038309;28;20048;-72
2021/07/14 07:28:41;;;;;;;18.80;15.95;;;;;;;;;;5019054;28;20464;-72
2021/07/14 07:31:09;;;;;;;19.77;17.63;;;;;;;;;;5041491;28;20029;-72
2021/07/14 07:33:36;;;;;;;21.77;16.95;;;;;;;;;;5030984;28;20040;-72
2021/07/14 07:36:03;;;;;;;17.85;15.95;;;;;;;;;;5046512;28;20120;-72
2021/07/14 07:38:29;;;;;;;20.90;15.25;;;;;;;;;;5035402;28;20045;-73
2021/07/14 07:40:57;;;;;;;19.83;15.88;;;;;;;;;;5039791;28;20493;-73
2021/07/14 07:43:24;;;;;;;16.42;14.70;;;;;;;;;;5041120;28;20026;-73
2021/07/14 07:45:50;;;;;;;16.48;14.20;;;;;;;;;;5038995;28;20525;-73
2021/07/14 07:48:16;;;;;;;16.85;14.57;;;;;;;;;;5037434;28;20032;-73
2021/07/14 07:50:43;;;;;;;19.27;14.90;;;;;;;;;;5032228;28;20412;-73
2021/07/14 07:53:09;;;;;;;17.10;15.45;;;;;;;;;;5040087;28;20041;-73
2021/07/14 07:55:35;;;;;;;16.35;14.27;;;;;;;;;;5030661;28;20074;-73
2021/07/14 07:58:02;;;;;;;20.17;15.05;;;;;;;;;;5022764;28;20404;-73
2021/07/14 08:00:28;;;;;;;16.20;14.50;;;;;;;;;;5035058;28;20494;-73
2021/07/14 08:02:56;;;;;;;19.42;15.10;;;;;;;;;;5035516;28;20065;-68
2021/07/14 08:05:22;;;;;;;16.40;14.02;;;;;;;;;;5042071;28;20037;-68
2021/07/14 08:07:48;;;;;;;14.90;13.38;;;;;;;;;;5037067;28;20041;-67
2021/07/14 08:10:15;;;;;;;17.67;14.50;;;;;;;;;;5031900;28;20053;-68
2021/07/14 08:12:41;;;;;;;16.52;14.75;;;;;;;;;;5035709;28;20041;-68
2021/07/14 08:15:08;;;;;;;15.88;14.13;;;;;;;;;;5040615;28;20060;-68
2021/07/14 08:17:34;;;;;;;14.77;13.32;;;;;;;;;;5037460;28;20053;-68
2021/07/14 08:20:00;;;;;;;18.73;14.93;;;;;;;;;;5035820;28;20068;-69
2021/07/14 08:22:26;;;;;;;17.90;14.82;;;;;;;;;;5039858;28;20047;-72
2021/07/14 08:24:53;;;;;;;17.20;14.80;;;;;;;;;;5037032;28;24455;-70
2021/07/14 08:27:20;;;;;;;16.33;14.73;;;;;;;;;;5041832;28;20056;-71
2021/07/14 08:29:46;;;;;;;18.38;15.13;;;;;;;;;;5037377;28;20394;-72
2021/07/14 08:32:12;;;;;;;18.02;16.30;;;;;;;;;;5035612;28;20467;-73
2021/07/14 08:34:39;;;;;;;16.52;14.48;;;;;;;;;;5048202;28;20036;-72
2021/07/14 08:37:06;;;;;;;17.08;15.32;;;;;;;;;;5031572;28;20124;-71
2021/07/14 08:39:32;;;;;;;16.80;15.05;;;;;;;;;;5040568;28;20049;-73
2021/07/14 08:42:02;;;;;;;16.63;14.95;;;;;;;;;;5033388;28;20576;-73
2021/07/14 08:44:28;;;;;;;20.13;14.93;;;;;;;;;;5036753;28;20112;-73
2021/07/14 08:46:54;;;;;;;15.93;14.32;;;;;;;;;;5037511;28;20123;-71
2021/07/14 08:49:21;;;;;;;15.25;13.68;;;;;;;;;;5041101;28;20043;-71
2021/07/14 08:51:47;;;;;;;15.73;14.13;;;;;;;;;;5030431;28;20083;-72
2021/07/14 08:54:13;;;;;;;14.90;13.57;;;;;;;;;;5043156;28;20065;-72
2021/07/14 08:56:39;;;;;;;14.70;13.20;;;;;;;;;;5035035;28;20112;-72
2021/07/14 08:59:05;;;;;;;14.75;13.40;;;;;;;;;;5036691;28;20095;-71
2021/07/14 09:01:32;;;;;;;16.45;14.65;;;;;;;;;;5034823;28;20049;-71
2021/07/14 09:04:00;;;;;;;15.00;13.43;;;;;;;;;;5036126;28;20052;-71
2021/07/14 09:06:26;;;;;;;16.88;14.13;;;;;;;;;;5036521;28;20147;-69
2021/07/14 09:08:52;;;;;;;14.77;13.25;;;;;;;;;;5030498;28;20053;-69
2021/07/14 09:11:18;;;;;;;15.07;13.55;;;;;;;;;;5037655;28;20049;-69
2021/07/14 09:13:46;;;;;;;18.08;14.82;;;;;;;;;;5034125;28;20056;-70
2021/07/14 09:16:31;;;;;;;17.27;14.50;;;;;;;;;;5041284;28;20058;-69
2021/07/14 09:19:18;;;;;;;16.45;14.52;;;;;;;;;;5033175;28;20041;-69
2021/07/14 09:21:45;;;;;;;16.42;13.98;;;;;;;;;;5034127;28;20061;-69
2021/07/14 09:24:27;;;;;;;17.25;13.82;;;;;;;;;;5035484;28;20366;-71
2021/07/14 09:26:54;;;;;;;15.27;13.70;;;;;;;;;;5037173;28;20047;-70
2021/07/14 09:29:21;;;;;;;15.35;13.90;;;;;;;;;;5030416;28;20095;-69
2021/07/14 09:31:47;;;;;;;16.80;14.00;;;;;;;;;;5033612;28;20037;-69
2021/07/14 09:34:23;;;;;;;16.88;15.15;;;;;;;;;;5040114;28;20040;-69
2021/07/14 09:36:49;;;;;;;15.60;14.20;;;;;;;;;;5041323;28;20090;-69
2021/07/14 09:39:15;;;;;;;17.70;15.85;;;;;;;;;;5033076;28;20124;-69
2021/07/14 09:41:47;;;;;;;18.00;16.13;;;;;;;;;;5044465;28;20053;-70
2021/07/14 09:44:23;;;;;;;18.40;16.45;;;;;;;;;;5034470;28;20037;-70
2021/07/14 09:47:08;;;;;;;19.20;16.77;;;;;;;;;;5036542;28;20049;-69
2021/07/14 09:49:35;;;;;;;20.60;18.05;;;;;;;;;;5033036;28;20140;-69
2021/07/14 09:52:05;;;;;;;20.75;18.85;;;;;;;;;;5038170;28;20152;-71
2021/07/14 09:54:32;;;;;;;20.27;18.48;;;;;;;;;;5028155;28;20121;-71
2021/07/14 09:57:06;;;;;;;20.95;18.83;;;;;;;;;;5033870;28;20033;-71
2021/07/14 09:59:33;;;;;;;20.02;17.92;;;;;;;;;;5033876;28;20053;-71
2021/07/14 10:01:59;;;;;;;21.48;19.35;;;;;;;;;;5037074;28;20164;-71
2021/07/14 10:04:32;;;;;;;21.42;18.73;;;;;;;;;;5035645;28;20046;-72
2021/07/14 10:07:05;;;;;;;22.73;20.58;;;;;;;;;;5040286;28;20115;-71
2021/07/14 10:09:32;;;;;;;21.60;19.48;;;;;;;;;;5035204;28;20449;-75
2021/07/14 10:12:16;;;;;;;23.75;21.38;;;;;;;;;;5035286;28;20078;-74
2021/07/14 10:14:42;;;;;;;20.85;18.65;;;;;;;;;;5015162;28;20045;-74
2021/07/14 10:17:09;;;;;;;19.40;17.67;;;;;;;;;;5016517;28;20049;-74
2021/07/14 10:19:35;;;;;;;21.23;19.17;;;;;;;;;;5013512;28;20528;-74
2021/07/14 10:22:02;;;;;;;19.92;17.95;;;;;;;;;;5037215;28;20432;-74
2021/07/14 10:24:28;;;;;;;19.85;17.77;;;;;;;;;;5023395;28;20091;-74
2021/07/14 10:26:56;;;;;;;20.58;18.48;;;;;;;;;;5031180;28;20036;-69
2021/07/14 10:29:22;;;;;;;20.70;18.85;;;;;;;;;;5034081;28;20088;-70
2021/07/14 10:31:50;;;;;;;20.65;18.65;;;;;;;;;;5032841;28;20037;-70
2021/07/14 10:34:17;;;;;;;20.75;17.75;;;;;;;;;;5032944;28;20040;-69
2021/07/14 10:36:44;;;;;;;18.23;16.45;;;;;;;;;;5034263;28;20121;-69
2021/07/14 10:39:11;;;;;;;18.35;16.42;;;;;;;;;;5025251;28;20589;-69
2021/07/14 10:41:38;;;;;;;20.58;17.23;;;;;;;;;;5037620;28;20041;-69
2021/07/14 10:44:07;;;;;;;19.27;17.33;;;;;;;;;;5038530;28;20034;-69
2021/07/14 10:46:35;;;;;;;17.58;15.88;;;;;;;;;;5028742;28;20045;-69
2021/07/14 10:49:02;;;;;;;19.80;17.63;;;;;;;;;;5042965;28;20120;-69
2021/07/14 10:51:30;;;;;;;25.23;19.20;;;;;;;;;;5037083;28;20030;-69
2021/07/14 10:53:58;;;;;;;23.65;21.25;;;;;;;;;;5039338;28;20487;-69
2021/07/14 10:56:35;;;;;;;24.70;22.13;;;;;;;;;;5032876;28;20041;-69
2021/07/14 10:59:01;;;;;;;25.38;22.92;;;;;;;;;;5043355;28;20136;-69
2021/07/14 11:01:41;;;;;;;26.65;24.02;;;;;;;;;;5036630;28;20405;-69
2021/07/14 11:04:14;;;;;;;26.00;23.50;;;;;;;;;;5044974;28;20075;-69
2021/07/14 11:06:56;;;;;;;33.77;26.23;;;;;;;;;;5032273;28;20030;-68
2021/07/14 11:09:32;;;;;;;29.88;25.92;;;;;;;;;;5038547;28;20068;-68
2021/07/14 11:11:58;;;;;;;28.88;25.63;;;;;;;;;;5032234;28;20542;-68
2021/07/14 11:14:34;;;;;;;27.85;25.05;;;;;;;;;;5038448;28;20516;-69
2021/07/14 11:17:00;;;;;;;33.40;26.48;;;;;;;;;;5031434;28;20038;-68
2021/07/14 11:19:42;;;;;;;26.23;23.42;;;;;;;;;;5020911;28;20502;-69
2021/07/14 11:22:09;;;;;;;26.65;23.60;;;;;;;;;;5034294;28;20054;-69
2021/07/14 11:24:48;;;;;;;25.10;21.85;;;;;;;;;;5037461;28;20037;-69
2021/07/14 11:27:26;;;;;;;26.38;23.67;;;;;;;;;;5032909;28;20250;-68
2021/07/14 11:29:56;;;;;;;26.27;23.48;;;;;;;;;;5038658;28;20144;-68
2021/07/14 11:32:34;;;;;;;27.00;23.45;;;;;;;;;;5035190;28;20056;-68
2021/07/14 11:35:00;;;;;;;27.25;23.02;;;;;;;;;;5021950;28;20053;-68
2021/07/14 11:37:37;;;;;;;24.73;22.25;;;;;;;;;;5035935;28;20466;-69
2021/07/14 11:40:21;;;;;;;24.58;20.92;;;;;;;;;;5039397;28;20042;-68
2021/07/14 11:42:50;;;;;;;23.48;21.05;;;;;;;;;;5034198;28;20125;-69
2021/07/14 11:45:20;;;;;;;27.30;22.20;;;;;;;;;;5036865;28;20048;-69
2021/07/14 11:48:07;;;;;;;25.23;21.60;;;;;;;;;;5041097;28;20481;-69
2021/07/14 11:50:45;;;;;;;21.65;19.52;;;;;;;;;;5024307;28;20154;-68
2021/07/14 11:53:39;;;;;;;22.15;19.75;;;;;;;;;;5034993;28;20424;-69
2021/07/14 11:56:07;;;;;;;21.93;19.60;;;;;;;;;;5037606;28;20180;-68
2021/07/14 11:58:51;;;;;;;21.35;19.15;;;;;;;;;;5032869;28;20047;-68
2021/07/14 12:01:17;;;;;;;22.25;19.80;;;;;;;;;;5042573;28;20501;-69
2021/07/14 12:04:01;;;;;;;23.17;19.88;;;;;;;;;;5039732;28;20790;-69
2021/07/14 12:06:37;;;;;;;21.23;19.08;;;;;;;;;;5041319;28;20048;-68
2021/07/14 12:09:23;;;;;;;23.40;20.55;;;;;;;;;;5032603;28;20096;-68
2021/07/14 12:11:50;;;;;;;22.08;18.42;;;;;;;;;;5019424;28;20050;-68
2021/07/14 12:14:16;;;;;;;19.83;17.65;;;;;;;;;;5028775;28;20042;-68
2021/07/14 12:16:47;;;;;;;20.60;18.33;;;;;;;;;;5039282;28;20068;-68
2021/07/14 12:19:18;;;;;;;20.17;18.15;;;;;;;;;;5035474;28;20132;-68
2021/07/14 12:21:44;;;;;;;21.77;19.50;;;;;;;;;;5034554;28;20639;-68
2021/07/14 12:24:26;;;;;;;19.45;17.38;;;;;;;;;;5036827;28;20041;-68
2021/07/14 12:26:59;;;;;;;21.23;18.48;;;;;;;;;;5040299;28;20124;-68
2021/07/14 12:29:26;;;;;;;22.23;19.20;;;;;;;;;;5033110;28;20500;-68
2021/07/14 12:31:52;;;;;;;24.13;19.20;;;;;;;;;;5044342;28;20037;-68
2021/07/14 12:34:25;;;;;;;22.00;18.98;;;;;;;;;;5018952;28;20063;-67
2021/07/14 12:36:52;;;;;;;23.00;17.95;;;;;;;;;;5035128;28;20037;-72
2021/07/14 12:39:25;;;;;;;21.67;18.02;;;;;;;;;;5041921;28;20045;-72
2021/07/14 12:41:55;;;;;;;21.42;18.92;;;;;;;;;;5030633;28;20041;-72
2021/07/14 12:44:22;;;;;;;20.35;17.67;;;;;;;;;;5045797;28;20048;-71
2021/07/14 12:46:48;;;;;;;19.98;17.92;;;;;;;;;;5039783;28;20386;-71
2021/07/14 12:49:23;;;;;;;19.77;16.38;;;;;;;;;;5037814;28;20089;-73
2021/07/14 12:52:05;;;;;;;20.35;17.17;;;;;;;;;;5021194;28;20501;-73
2021/07/14 12:54:32;;;;;;;19.05;16.40;;;;;;;;;;5042950;28;20041;-73
2021/07/14 12:57:05;;;;;;;20.90;16.30;;;;;;;;;;5033988;28;20045;-73
2021/07/14 12:59:31;;;;;;;18.13;16.17;;;;;;;;;;5020924;28;20059;-73
2021/07/14 13:01:58;;;;;;;20.42;15.27;;;;;;;;;;5037530;28;20473;-73
2021/07/14 13:04:24;;;;;;;20.75;15.93;;;;;;;;;;5038602;28;20457;-74
2021/07/14 13:06:50;;;;;;;17.45;15.38;;;;;;;;;;5017953;28;20385;-73
2021/07/14 13:09:17;;;;;;;16.67;13.90;;;;;;;;;;5039253;28;20497;-72
2021/07/14 13:11:43;;;;;;;15.63;13.55;;;;;;;;;;5033074;28;20041;-73
2021/07/14 13:14:10;;;;;;;16.33;13.48;;;;;;;;;;5024420;28;20057;-73
2021/07/14 13:16:43;;;;;;;16.88;14.18;;;;;;;;;;5036267;28;20041;-70
2021/07/14 13:19:16;;;;;;;17.60;14.73;;;;;;;;;;5036231;28;20045;-69
2021/07/14 13:21:42;;;;;;;16.98;13.55;;;;;;;;;;5035271;28;20053;-69
2021/07/14 13:24:09;;;;;;;17.25;14.45;;;;;;;;;;5038666;28;20064;-69
2021/07/14 13:26:35;;;;;;;16.90;13.95;;;;;;;;;;5032550;28;20124;-70
2021/07/14 13:29:01;;;;;;;15.00;12.80;;;;;;;;;;5043937;28;20126;-70
2021/07/14 13:31:29;;;;;;;16.30;13.52;;;;;;;;;;5037230;28;20060;-70
2021/07/14 13:33:58;;;;;;;16.27;14.23;;;;;;;;;;5038996;28;20033;-69
2021/07/14 13:36:27;;;;;;;14.38;12.85;;;;;;;;;;5039978;28;20539;-70
2021/07/14 13:38:56;;;;;;;14.77;13.00;;;;;;;;;;5031460;28;20034;-69
2021/07/14 13:41:22;;;;;;;14.27;12.45;;;;;;;;;;5030788;28;20048;-69
2021/07/14 13:43:53;;;;;;;17.25;12.82;;;;;;;;;;5030826;28;20076;-70
2021/07/14 13:46:23;;;;;;;13.70;12.15;;;;;;;;;;5035367;28;20075;-70
2021/07/14 13:49:10;;;;;;;13.65;12.23;;;;;;;;;;5035354;28;20037;-70
2021/07/14 13:51:40;;;;;;;14.60;13.10;;;;;;;;;;5022224;28;20555;-69
2021/07/14 13:54:19;;;;;;;13.98;12.55;;;;;;;;;;5030176;28;20116;-69
2021/07/14 13:56:46;;;;;;;13.57;11.43;;;;;;;;;;5034496;28;20427;-69
2021/07/14 13:59:18;;;;;;;13.18;11.20;;;;;;;;;;5030182;28;20486;-69
2021/07/14 14:02:03;;;;;;;11.63;10.43;;;;;;;;;;5040097;28;20052;-68
2021/07/14 14:04:50;;;;;;;11.52;10.02;;;;;;;;;;5032720;28;20136;-69
2021/07/14 14:07:16;;;;;;;11.88;9.68;;;;;;;;;;5026384;28;20053;-68
2021/07/14 14:09:54;;;;;;;11.63;9.70;;;;;;;;;;5029179;28;20053;-71
2021/07/14 14:12:31;;;;;;;11.82;9.68;;;;;;;;;;5035254;28;20354;-70
2021/07/14 14:14:58;;;;;;;12.50;9.23;;;;;;;;;;5033355;28;20113;-70
2021/07/14 14:17:24;;;;;;;10.43;9.38;;;;;;;;;;5018108;28;20107;-70
2021/07/14 14:19:51;;;;;;;11.60;9.75;;;;;;;;;;5030838;28;20102;-70
2021/07/14 14:22:21;;;;;;;11.48;9.93;;;;;;;;;;5034888;28;20044;-70
2021/07/14 14:24:48;;;;;;;11.43;10.27;;;;;;;;;;5020205;28;20056;-77
2021/07/14 14:27:14;;;;;;;11.45;9.25;;;;;;;;;;5027524;28;20064;-78
2021/07/14 14:29:42;;;;;;;12.05;9.48;;;;;;;;;;5033182;28;20053;-77
2021/07/14 14:32:11;;;;;;;10.02;8.95;;;;;;;;;;5037142;28;20116;-77
2021/07/14 14:34:41;;;;;;;10.00;8.77;;;;;;;;;;5020475;28;20037;-77
2021/07/14 14:37:07;;;;;;;11.65;9.05;;;;;;;;;;5022767;28;20067;-78